sensor_id;sensor_type;location;lat;lon;timestamp;pressure;altitude;pressure_sealevel;temperature;humidity
81151;BME280;70629;-26.026;27.976;2024-03-02T00:00:23;86554.88;;;20.84;64.27
81151;BME280;70629;-26.026;27.976;2024-03-02T00:01:04;86552.03;;;20.78;62.92
81151;BME280;70629;-26.026;27.976;2024-03-02T00:01:45;86550.59;;;20.71;64.37
81151;BME280;70629;-26.026;27.976;2024-03-02T00:02:26;86556.25;;;20.85;64.17
81151;BME280;70629;-26.026;27.976;2024-03-02T00:03:07;86554.03;;;20.74;64.13
81151;BME280;70629;-26.026;27.976;2024-03-02T00:03:49;86557.19;;;20.56;64.10
81151;BME280;70629;-26.026;27.976;2024-03-02T00:04:29;86554.47;;;20.56;64.54
81151;BME280;70629;-26.026;27.976;2024-03-02T00:05:13;86559.97;;;20.60;64.04
81151;BME280;70629;-26.026;27.976;2024-03-02T00:05:53;86556.94;;;20.40;64.61
81151;BME280;70629;-26.026;27.976;2024-03-02T00:06:33;86556.34;;;20.45;64.60
81151;BME280;70629;-26.026;27.976;2024-03-02T00:07:14;86547.88;;;20.73;63.74
81151;BME280;70629;-26.026;27.976;2024-03-02T00:07:58;86545.88;;;20.76;63.57
81151;BME280;70629;-26.026;27.976;2024-03-02T00:08:39;86545.94;;;20.82;62.60
81151;BME280;70629;-26.026;27.976;2024-03-02T00:09:19;86550.78;;;20.85;62.86
81151;BME280;70629;-26.026;27.976;2024-03-02T00:09:59;86543.75;;;20.72;62.77
81151;BME280;70629;-26.026;27.976;2024-03-02T00:10:40;86550.84;;;20.89;62.11
81151;BME280;70629;-26.026;27.976;2024-03-02T00:11:20;86553.88;;;21.12;61.65
81151;BME280;70629;-26.026;27.976;2024-03-02T00:12:00;86542.34;;;21.17;59.95
81151;BME280;70629;-26.026;27.976;2024-03-02T00:12:40;86552.91;;;20.91;60.18
81151;BME280;70629;-26.026;27.976;2024-03-02T00:13:21;86545.50;;;20.99;61.58
81151;BME280;70629;-26.026;27.976;2024-03-02T00:14:03;86545.44;;;20.95;60.76
81151;BME280;70629;-26.026;27.976;2024-03-02T00:14:42;86550.75;;;20.83;60.87
81151;BME280;70629;-26.026;27.976;2024-03-02T00:16:31;86544.78;;;20.95;62.08
81151;BME280;70629;-26.026;27.976;2024-03-02T00:17:24;86549.22;;;20.72;61.45
81151;BME280;70629;-26.026;27.976;2024-03-02T00:18:05;86545.19;;;20.75;61.86
81151;BME280;70629;-26.026;27.976;2024-03-02T00:18:45;86549.75;;;20.63;62.50
81151;BME280;70629;-26.026;27.976;2024-03-02T00:19:25;86555.00;;;20.46;61.70
81151;BME280;70629;-26.026;27.976;2024-03-02T00:20:09;86540.22;;;20.64;61.21
81151;BME280;70629;-26.026;27.976;2024-03-02T00:20:55;86546.44;;;20.68;61.67
81151;BME280;70629;-26.026;27.976;2024-03-02T00:21:36;86546.31;;;20.60;61.29
81151;BME280;70629;-26.026;27.976;2024-03-02T00:22:16;86550.22;;;20.47;61.86
81151;BME280;70629;-26.026;27.976;2024-03-02T00:23:04;86547.66;;;20.57;59.80
81151;BME280;70629;-26.026;27.976;2024-03-02T00:23:44;86545.81;;;20.72;59.30
81151;BME280;70629;-26.026;27.976;2024-03-02T00:24:34;86542.41;;;20.73;60.85
81151;BME280;70629;-26.026;27.976;2024-03-02T00:25:15;86544.97;;;20.61;60.06
81151;BME280;70629;-26.026;27.976;2024-03-02T00:25:55;86544.94;;;20.59;60.10
81151;BME280;70629;-26.026;27.976;2024-03-02T00:26:35;86547.44;;;20.45;60.56
81151;BME280;70629;-26.026;27.976;2024-03-02T00:27:15;86546.78;;;20.46;60.20
81151;BME280;70629;-26.026;27.976;2024-03-02T00:27:57;86550.50;;;20.67;60.48
81151;BME280;70629;-26.026;27.976;2024-03-02T00:28:39;86545.69;;;20.64;60.37
81151;BME280;70629;-26.026;27.976;2024-03-02T00:29:19;86546.56;;;20.76;59.36
81151;BME280;70629;-26.026;27.976;2024-03-02T00:30:01;86542.59;;;20.85;58.66
81151;BME280;70629;-26.026;27.976;2024-03-02T00:30:58;86550.97;;;20.99;59.51
81151;BME280;70629;-26.026;27.976;2024-03-02T00:31:39;86550.91;;;20.95;58.70
81151;BME280;70629;-26.026;27.976;2024-03-02T00:32:19;86544.09;;;20.96;59.28
81151;BME280;70629;-26.026;27.976;2024-03-02T00:32:59;86547.38;;;20.87;60.58
81151;BME280;70629;-26.026;27.976;2024-03-02T00:33:44;86552.69;;;20.77;59.46
81151;BME280;70629;-26.026;27.976;2024-03-02T00:34:25;86548.22;;;20.97;60.37
81151;BME280;70629;-26.026;27.976;2024-03-02T00:35:05;86544.72;;;20.93;59.07
81151;BME280;70629;-26.026;27.976;2024-03-02T00:35:45;86554.13;;;20.82;58.87
81151;BME280;70629;-26.026;27.976;2024-03-02T00:36:26;86551.94;;;20.72;59.40
81151;BME280;70629;-26.026;27.976;2024-03-02T00:37:06;86548.06;;;20.87;59.22
81151;BME280;70629;-26.026;27.976;2024-03-02T00:37:46;86547.91;;;20.77;59.54
81151;BME280;70629;-26.026;27.976;2024-03-02T00:38:27;86550.81;;;20.87;60.67
81151;BME280;70629;-26.026;27.976;2024-03-02T00:39:07;86550.19;;;20.93;60.00
81151;BME280;70629;-26.026;27.976;2024-03-02T00:39:49;86549.75;;;20.63;60.00
81151;BME280;70629;-26.026;27.976;2024-03-02T00:40:29;86554.94;;;20.42;60.71
81151;BME280;70629;-26.026;27.976;2024-03-02T00:41:16;86558.16;;;20.31;60.89
81151;BME280;70629;-26.026;27.976;2024-03-02T00:41:57;86551.81;;;20.20;60.94
81151;BME280;70629;-26.026;27.976;2024-03-02T00:42:37;86551.63;;;20.50;60.49
81151;BME280;70629;-26.026;27.976;2024-03-02T00:44:25;86549.25;;;20.30;60.76
81151;BME280;70629;-26.026;27.976;2024-03-02T00:45:13;86550.44;;;20.19;61.52
81151;BME280;70629;-26.026;27.976;2024-03-02T00:45:53;86548.31;;;20.15;62.07
81151;BME280;70629;-26.026;27.976;2024-03-02T00:46:37;86550.03;;;20.35;62.24
81151;BME280;70629;-26.026;27.976;2024-03-02T00:47:17;86554.25;;;20.44;61.16
81151;BME280;70629;-26.026;27.976;2024-03-02T00:47:58;86542.84;;;20.55;61.19
81151;BME280;70629;-26.026;27.976;2024-03-02T00:48:39;86553.06;;;20.55;62.00
81151;BME280;70629;-26.026;27.976;2024-03-02T00:49:22;86547.00;;;20.61;61.93
81151;BME280;70629;-26.026;27.976;2024-03-02T00:50:02;86547.13;;;20.69;62.19
81151;BME280;70629;-26.026;27.976;2024-03-02T00:50:54;86552.91;;;20.45;62.09
81151;BME280;70629;-26.026;27.976;2024-03-02T00:51:34;86556.66;;;20.24;62.07
81151;BME280;70629;-26.026;27.976;2024-03-02T00:52:15;86553.81;;;20.17;62.04
81151;BME280;70629;-26.026;27.976;2024-03-02T00:52:54;86548.28;;;20.13;62.71
81151;BME280;70629;-26.026;27.976;2024-03-02T00:53:35;86546.97;;;20.16;62.90
81151;BME280;70629;-26.026;27.976;2024-03-02T00:54:15;86547.88;;;20.29;62.27
81151;BME280;70629;-26.026;27.976;2024-03-02T00:54:58;86551.78;;;20.60;62.73
81151;BME280;70629;-26.026;27.976;2024-03-02T00:55:39;86544.19;;;20.54;62.74
81151;BME280;70629;-26.026;27.976;2024-03-02T00:56:24;86543.09;;;20.30;62.02
81151;BME280;70629;-26.026;27.976;2024-03-02T00:57:04;86544.13;;;20.08;62.15
81151;BME280;70629;-26.026;27.976;2024-03-02T00:57:44;86540.81;;;20.14;62.02
81151;BME280;70629;-26.026;27.976;2024-03-02T00:58:24;86548.22;;;20.09;62.74
81151;BME280;70629;-26.026;27.976;2024-03-02T00:59:04;86538.09;;;20.16;62.42
81151;BME280;70629;-26.026;27.976;2024-03-02T00:59:44;86538.84;;;20.21;62.03
81151;BME280;70629;-26.026;27.976;2024-03-02T01:00:25;86545.25;;;20.35;62.18
81151;BME280;70629;-26.026;27.976;2024-03-02T01:01:05;86540.59;;;20.42;62.54
81151;BME280;70629;-26.026;27.976;2024-03-02T01:01:48;86533.16;;;20.48;62.40
81151;BME280;70629;-26.026;27.976;2024-03-02T01:02:28;86539.47;;;20.59;61.27
81151;BME280;70629;-26.026;27.976;2024-03-02T01:03:08;86532.69;;;20.62;61.48
81151;BME280;70629;-26.026;27.976;2024-03-02T01:03:50;86535.44;;;20.62;61.63
81151;BME280;70629;-26.026;27.976;2024-03-02T01:04:30;86526.59;;;20.68;61.48
81151;BME280;70629;-26.026;27.976;2024-03-02T01:05:10;86535.44;;;20.64;61.12
81151;BME280;70629;-26.026;27.976;2024-03-02T01:05:50;86532.75;;;20.68;60.91
81151;BME280;70629;-26.026;27.976;2024-03-02T01:06:30;86526.56;;;20.64;60.24
81151;BME280;70629;-26.026;27.976;2024-03-02T01:07:10;86533.66;;;20.37;61.35
81151;BME280;70629;-26.026;27.976;2024-03-02T01:07:50;86531.75;;;20.45;61.94
81151;BME280;70629;-26.026;27.976;2024-03-02T01:08:30;86536.56;;;20.49;62.02
81151;BME280;70629;-26.026;27.976;2024-03-02T01:09:10;86520.25;;;20.53;62.33
81151;BME280;70629;-26.026;27.976;2024-03-02T01:09:52;86531.69;;;20.41;62.52
81151;BME280;70629;-26.026;27.976;2024-03-02T01:10:32;86525.56;;;20.43;61.85
81151;BME280;70629;-26.026;27.976;2024-03-02T01:11:12;86537.22;;;20.45;61.89
81151;BME280;70629;-26.026;27.976;2024-03-02T01:11:52;86535.13;;;20.42;61.41
81151;BME280;70629;-26.026;27.976;2024-03-02T01:12:32;86533.69;;;20.39;62.42
81151;BME280;70629;-26.026;27.976;2024-03-02T01:13:12;86529.78;;;20.50;62.26
81151;BME280;70629;-26.026;27.976;2024-03-02T01:13:52;86528.31;;;20.43;61.96
81151;BME280;70629;-26.026;27.976;2024-03-02T01:14:31;86533.03;;;20.38;62.32
81151;BME280;70629;-26.026;27.976;2024-03-02T01:15:12;86529.31;;;20.22;62.08
81151;BME280;70629;-26.026;27.976;2024-03-02T01:15:52;86528.31;;;20.43;62.19
81151;BME280;70629;-26.026;27.976;2024-03-02T01:16:32;86527.63;;;20.44;62.17
81151;BME280;70629;-26.026;27.976;2024-03-02T01:17:12;86524.19;;;20.44;62.28
81151;BME280;70629;-26.026;27.976;2024-03-02T01:17:53;86531.06;;;20.45;62.50
81151;BME280;70629;-26.026;27.976;2024-03-02T01:18:33;86532.28;;;20.34;63.35
81151;BME280;70629;-26.026;27.976;2024-03-02T01:19:13;86530.41;;;20.04;63.60
81151;BME280;70629;-26.026;27.976;2024-03-02T01:19:54;86534.88;;;19.88;64.17
81151;BME280;70629;-26.026;27.976;2024-03-02T01:20:34;86528.88;;;19.95;64.89
81151;BME280;70629;-26.026;27.976;2024-03-02T01:21:14;86531.22;;;20.13;65.24
81151;BME280;70629;-26.026;27.976;2024-03-02T01:21:54;86533.44;;;20.23;64.34
81151;BME280;70629;-26.026;27.976;2024-03-02T01:22:34;86534.88;;;20.28;63.37
81151;BME280;70629;-26.026;27.976;2024-03-02T01:23:15;86534.19;;;20.27;62.69
81151;BME280;70629;-26.026;27.976;2024-03-02T01:23:55;86531.22;;;20.13;62.78
81151;BME280;70629;-26.026;27.976;2024-03-02T01:24:35;86530.72;;;20.25;62.79
81151;BME280;70629;-26.026;27.976;2024-03-02T01:25:15;86537.69;;;20.32;62.40
81151;BME280;70629;-26.026;27.976;2024-03-02T01:25:55;86540.97;;;20.24;61.91
81151;BME280;70629;-26.026;27.976;2024-03-02T01:26:35;86535.88;;;20.04;63.10
81151;BME280;70629;-26.026;27.976;2024-03-02T01:27:14;86537.34;;;20.11;63.00
81151;BME280;70629;-26.026;27.976;2024-03-02T01:27:54;86536.22;;;20.27;62.98
81151;BME280;70629;-26.026;27.976;2024-03-02T01:28:34;86532.59;;;20.14;63.70
81151;BME280;70629;-26.026;27.976;2024-03-02T01:29:14;86535.41;;;20.20;63.39
81151;BME280;70629;-26.026;27.976;2024-03-02T01:29:54;86536.09;;;20.21;63.85
81151;BME280;70629;-26.026;27.976;2024-03-02T01:30:34;86536.91;;;20.27;63.34
81151;BME280;70629;-26.026;27.976;2024-03-02T01:31:14;86538.38;;;20.32;63.43
81151;BME280;70629;-26.026;27.976;2024-03-02T01:31:54;86538.47;;;20.38;63.40
81151;BME280;70629;-26.026;27.976;2024-03-02T01:32:34;86535.06;;;20.40;64.28
81151;BME280;70629;-26.026;27.976;2024-03-02T01:33:14;86543.03;;;20.26;63.63
81151;BME280;70629;-26.026;27.976;2024-03-02T01:33:54;86538.84;;;20.21;63.54
81151;BME280;70629;-26.026;27.976;2024-03-02T01:34:34;86533.56;;;20.31;63.03
81151;BME280;70629;-26.026;27.976;2024-03-02T01:35:14;86534.81;;;20.24;63.40
81151;BME280;70629;-26.026;27.976;2024-03-02T01:35:54;86530.28;;;19.98;63.80
81151;BME280;70629;-26.026;27.976;2024-03-02T01:36:34;86536.97;;;19.89;64.72
81151;BME280;70629;-26.026;27.976;2024-03-02T01:37:14;86544.28;;;19.79;65.62
81151;BME280;70629;-26.026;27.976;2024-03-02T01:37:54;86540.53;;;19.98;65.06
81151;BME280;70629;-26.026;27.976;2024-03-02T01:38:34;86533.91;;;20.11;64.30
81151;BME280;70629;-26.026;27.976;2024-03-02T01:39:14;86543.00;;;20.24;63.80
81151;BME280;70629;-26.026;27.976;2024-03-02T01:39:54;86534.81;;;20.24;63.48
81151;BME280;70629;-26.026;27.976;2024-03-02T01:40:37;86549.06;;;20.18;63.49
81151;BME280;70629;-26.026;27.976;2024-03-02T01:41:17;86550.91;;;20.07;64.55
81151;BME280;70629;-26.026;27.976;2024-03-02T01:41:58;86554.78;;;19.94;64.97
81151;BME280;70629;-26.026;27.976;2024-03-02T01:42:38;86555.19;;;19.79;66.05
81151;BME280;70629;-26.026;27.976;2024-03-02T01:43:19;86548.84;;;19.66;65.76
81151;BME280;70629;-26.026;27.976;2024-03-02T01:43:58;86551.19;;;19.84;66.00
81151;BME280;70629;-26.026;27.976;2024-03-02T01:44:40;86554.72;;;19.90;64.69
81151;BME280;70629;-26.026;27.976;2024-03-02T01:45:20;86553.66;;;20.07;64.09
81151;BME280;70629;-26.026;27.976;2024-03-02T01:46:00;86554.16;;;19.98;64.17
81151;BME280;70629;-26.026;27.976;2024-03-02T01:46:40;86553.53;;;19.99;64.08
81151;BME280;70629;-26.026;27.976;2024-03-02T01:47:20;86544.75;;;20.05;64.15
81151;BME280;70629;-26.026;27.976;2024-03-02T01:48:00;86557.56;;;19.96;64.75
81151;BME280;70629;-26.026;27.976;2024-03-02T01:48:40;86554.88;;;19.98;64.75
81151;BME280;70629;-26.026;27.976;2024-03-02T01:49:20;86546.78;;;20.04;63.85
81151;BME280;70629;-26.026;27.976;2024-03-02T01:50:00;86556.13;;;19.91;63.49
81151;BME280;70629;-26.026;27.976;2024-03-02T01:50:40;86548.78;;;20.02;63.80
81151;BME280;70629;-26.026;27.976;2024-03-02T01:51:20;86547.06;;;19.81;64.78
81151;BME280;70629;-26.026;27.976;2024-03-02T01:52:00;86547.56;;;19.71;65.13
81151;BME280;70629;-26.026;27.976;2024-03-02T01:52:41;86555.44;;;19.91;65.63
81151;BME280;70629;-26.026;27.976;2024-03-02T01:53:21;86547.75;;;19.81;65.22
81151;BME280;70629;-26.026;27.976;2024-03-02T01:54:01;86552.66;;;19.89;63.99
81151;BME280;70629;-26.026;27.976;2024-03-02T01:54:41;86548.56;;;19.90;64.55
81151;BME280;70629;-26.026;27.976;2024-03-02T01:55:21;86547.41;;;20.01;63.99
81151;BME280;70629;-26.026;27.976;2024-03-02T01:56:01;86540.66;;;20.06;63.27
81151;BME280;70629;-26.026;27.976;2024-03-02T01:56:41;86547.56;;;20.11;63.04
81151;BME280;70629;-26.026;27.976;2024-03-02T01:57:21;86552.75;;;19.95;63.71
81151;BME280;70629;-26.026;27.976;2024-03-02T01:58:01;86556.03;;;19.87;64.28
81151;BME280;70629;-26.026;27.976;2024-03-02T01:58:41;86551.31;;;19.92;63.37
81151;BME280;70629;-26.026;27.976;2024-03-02T01:59:21;86554.66;;;19.86;62.93
81151;BME280;70629;-26.026;27.976;2024-03-02T02:00:02;86556.03;;;19.87;63.57
81151;BME280;70629;-26.026;27.976;2024-03-02T02:00:48;86557.47;;;19.92;63.41
81151;BME280;70629;-26.026;27.976;2024-03-02T02:01:30;86556.63;;;19.82;63.01
81151;BME280;70629;-26.026;27.976;2024-03-02T02:02:11;86557.16;;;19.74;63.85
81151;BME280;70629;-26.026;27.976;2024-03-02T02:02:51;86555.63;;;19.63;64.75
81151;BME280;70629;-26.026;27.976;2024-03-02T02:03:31;86556.91;;;19.60;64.92
81151;BME280;70629;-26.026;27.976;2024-03-02T02:04:11;86559.13;;;19.69;64.44
81151;BME280;70629;-26.026;27.976;2024-03-02T02:04:52;86554.34;;;19.68;65.27
81151;BME280;70629;-26.026;27.976;2024-03-02T02:05:33;86558.22;;;19.57;65.25
81151;BME280;70629;-26.026;27.976;2024-03-02T02:06:14;86555.53;;;19.59;65.18
81151;BME280;70629;-26.026;27.976;2024-03-02T02:06:54;86562.59;;;19.72;64.53
81151;BME280;70629;-26.026;27.976;2024-03-02T02:07:35;86556.72;;;19.88;64.96
81151;BME280;70629;-26.026;27.976;2024-03-02T02:08:15;86556.38;;;19.67;64.51
81151;BME280;70629;-26.026;27.976;2024-03-02T02:08:55;86561.34;;;19.79;64.67
81151;BME280;70629;-26.026;27.976;2024-03-02T02:09:35;86555.53;;;19.59;65.09
81151;BME280;70629;-26.026;27.976;2024-03-02T02:10:15;86557.97;;;19.45;66.29
81151;BME280;70629;-26.026;27.976;2024-03-02T02:10:55;86561.28;;;19.39;66.62
81151;BME280;70629;-26.026;27.976;2024-03-02T02:11:35;86562.44;;;19.64;66.18
81151;BME280;70629;-26.026;27.976;2024-03-02T02:12:15;86559.53;;;19.54;66.19
81151;BME280;70629;-26.026;27.976;2024-03-02T02:12:55;86564.31;;;19.21;67.26
81151;BME280;70629;-26.026;27.976;2024-03-02T02:13:35;86564.94;;;19.18;67.74
81151;BME280;70629;-26.026;27.976;2024-03-02T02:14:16;86561.59;;;19.21;67.60
81151;BME280;70629;-26.026;27.976;2024-03-02T02:14:56;86557.31;;;19.44;67.77
81151;BME280;70629;-26.026;27.976;2024-03-02T02:15:35;86565.78;;;19.60;66.51
81151;BME280;70629;-26.026;27.976;2024-03-02T02:16:16;86561.28;;;19.39;66.83
81151;BME280;70629;-26.026;27.976;2024-03-02T02:16:55;86560.41;;;19.30;67.56
81151;BME280;70629;-26.026;27.976;2024-03-02T02:17:35;86565.41;;;19.42;67.56
81151;BME280;70629;-26.026;27.976;2024-03-02T02:18:16;86561.78;;;19.32;66.87
81151;BME280;70629;-26.026;27.976;2024-03-02T02:18:56;86566.53;;;19.29;66.98
81151;BME280;70629;-26.026;27.976;2024-03-02T02:19:36;86559.50;;;19.52;66.55
81151;BME280;70629;-26.026;27.976;2024-03-02T02:20:16;86562.56;;;19.70;65.72
81151;BME280;70629;-26.026;27.976;2024-03-02T02:20:56;86564.13;;;19.81;65.61
81151;BME280;70629;-26.026;27.976;2024-03-02T02:21:36;86557.28;;;19.80;65.61
81151;BME280;70629;-26.026;27.976;2024-03-02T02:22:16;86554.38;;;19.70;65.31
81151;BME280;70629;-26.026;27.976;2024-03-02T02:23:00;86563.75;;;19.61;65.38
81151;BME280;70629;-26.026;27.976;2024-03-02T02:23:41;86555.31;;;19.47;65.88
81151;BME280;70629;-26.026;27.976;2024-03-02T02:24:25;86552.28;;;19.68;65.67
81151;BME280;70629;-26.026;27.976;2024-03-02T02:25:06;86559.19;;;19.71;65.78
81151;BME280;70629;-26.026;27.976;2024-03-02T02:25:45;86555.56;;;19.61;66.00
81151;BME280;70629;-26.026;27.976;2024-03-02T02:26:25;86558.78;;;19.51;66.09
81151;BME280;70629;-26.026;27.976;2024-03-02T02:27:05;86560.38;;;19.62;66.10
81151;BME280;70629;-26.026;27.976;2024-03-02T02:27:45;86564.59;;;19.69;66.02
81151;BME280;70629;-26.026;27.976;2024-03-02T02:28:25;86563.13;;;19.64;65.52
81151;BME280;70629;-26.026;27.976;2024-03-02T02:29:04;86568.00;;;19.70;65.15
81151;BME280;70629;-26.026;27.976;2024-03-02T02:29:44;86559.69;;;19.62;65.47
81151;BME280;70629;-26.026;27.976;2024-03-02T02:30:32;86563.81;;;19.63;64.64
81151;BME280;70629;-26.026;27.976;2024-03-02T02:31:13;86565.06;;;19.58;65.02
81151;BME280;70629;-26.026;27.976;2024-03-02T02:31:52;86570.03;;;19.67;64.79
81151;BME280;70629;-26.026;27.976;2024-03-02T02:32:32;86568.91;;;19.11;66.40
81151;BME280;70629;-26.026;27.976;2024-03-02T02:33:12;86572.94;;;18.76;67.92
81151;BME280;70629;-26.026;27.976;2024-03-02T02:33:52;86573.88;;;18.57;68.66
81151;BME280;70629;-26.026;27.976;2024-03-02T02:34:32;86566.81;;;18.48;68.89
81151;BME280;70629;-26.026;27.976;2024-03-02T02:35:12;86572.59;;;18.60;69.10
81151;BME280;70629;-26.026;27.976;2024-03-02T02:35:53;86566.44;;;18.91;68.17
81151;BME280;70629;-26.026;27.976;2024-03-02T02:36:33;86573.88;;;19.20;67.74
81151;BME280;70629;-26.026;27.976;2024-03-02T02:37:14;86568.91;;;19.11;67.91
81151;BME280;70629;-26.026;27.976;2024-03-02T02:37:54;86571.84;;;19.23;67.78
81151;BME280;70629;-26.026;27.976;2024-03-02T02:38:39;86566.53;;;19.29;67.14
81151;BME280;70629;-26.026;27.976;2024-03-02T02:39:21;86565.09;;;19.26;66.81
81151;BME280;70629;-26.026;27.976;2024-03-02T02:40:05;86566.75;;;19.07;67.37
81151;BME280;70629;-26.026;27.976;2024-03-02T02:40:45;86565.69;;;18.89;68.14
81151;BME280;70629;-26.026;27.976;2024-03-02T02:41:25;86568.63;;;18.99;68.27
81151;BME280;70629;-26.026;27.976;2024-03-02T02:42:05;86566.13;;;19.09;68.16
81151;BME280;70629;-26.026;27.976;2024-03-02T02:42:46;86565.69;;;19.20;68.12
81151;BME280;70629;-26.026;27.976;2024-03-02T02:43:26;86569.97;;;19.32;67.70
81151;BME280;70629;-26.026;27.976;2024-03-02T02:44:05;86569.53;;;19.43;67.19
81151;BME280;70629;-26.026;27.976;2024-03-02T02:44:45;86570.53;;;19.26;67.86
81151;BME280;70629;-26.026;27.976;2024-03-02T02:45:25;86576.97;;;19.41;67.04
81151;BME280;70629;-26.026;27.976;2024-03-02T02:46:05;86568.88;;;19.45;66.96
81151;BME280;70629;-26.026;27.976;2024-03-02T02:46:46;86574.44;;;19.49;66.51
81151;BME280;70629;-26.026;27.976;2024-03-02T02:47:25;86575.81;;;19.50;66.42
81151;BME280;70629;-26.026;27.976;2024-03-02T02:48:05;86575.00;;;19.43;65.87
81151;BME280;70629;-26.026;27.976;2024-03-02T02:48:45;86576.09;;;19.30;66.40
81151;BME280;70629;-26.026;27.976;2024-03-02T02:49:26;86573.31;;;19.28;66.68
81151;BME280;70629;-26.026;27.976;2024-03-02T02:50:09;86568.63;;;19.33;66.36
81151;BME280;70629;-26.026;27.976;2024-03-02T02:50:49;86572.47;;;19.19;66.52
81151;BME280;70629;-26.026;27.976;2024-03-02T02:51:29;86568.50;;;19.24;66.59
81151;BME280;70629;-26.026;27.976;2024-03-02T02:52:09;86569.66;;;19.15;66.55
81151;BME280;70629;-26.026;27.976;2024-03-02T02:52:49;86578.97;;;19.04;67.27
81151;BME280;70629;-26.026;27.976;2024-03-02T02:53:29;86579.13;;;19.12;67.38
81151;BME280;70629;-26.026;27.976;2024-03-02T02:54:09;86576.94;;;19.39;66.69
81151;BME280;70629;-26.026;27.976;2024-03-02T02:54:49;86574.25;;;19.41;66.04
81151;BME280;70629;-26.026;27.976;2024-03-02T02:55:29;86581.44;;;19.24;66.93
81151;BME280;70629;-26.026;27.976;2024-03-02T02:56:09;86575.34;;;18.94;67.56
81151;BME280;70629;-26.026;27.976;2024-03-02T02:56:49;86581.41;;;18.58;69.01
81151;BME280;70629;-26.026;27.976;2024-03-02T02:57:30;86583.47;;;18.32;69.67
81151;BME280;70629;-26.026;27.976;2024-03-02T02:58:14;86581.19;;;18.20;70.36
81151;BME280;70629;-26.026;27.976;2024-03-02T02:58:54;86571.63;;;18.19;71.13
81151;BME280;70629;-26.026;27.976;2024-03-02T02:59:35;86576.38;;;18.19;70.88
81151;BME280;70629;-26.026;27.976;2024-03-02T03:00:16;86579.75;;;18.17;70.96
81151;BME280;70629;-26.026;27.976;2024-03-02T03:00:58;86581.72;;;18.15;70.75
81151;BME280;70629;-26.026;27.976;2024-03-02T03:01:38;86576.41;;;18.51;70.15
81151;BME280;70629;-26.026;27.976;2024-03-02T03:02:19;86584.69;;;18.84;69.17
81151;BME280;70629;-26.026;27.976;2024-03-02T03:02:59;86581.47;;;18.94;68.85
81151;BME280;70629;-26.026;27.976;2024-03-02T03:03:39;86570.16;;;19.06;68.04
81151;BME280;70629;-26.026;27.976;2024-03-02T03:04:19;86580.31;;;19.03;68.16
81151;BME280;70629;-26.026;27.976;2024-03-02T03:04:59;86581.78;;;19.08;67.96
81151;BME280;70629;-26.026;27.976;2024-03-02T03:05:39;86575.06;;;19.13;67.34
81151;BME280;70629;-26.026;27.976;2024-03-02T03:06:19;86572.91;;;19.08;67.31
81151;BME280;70629;-26.026;27.976;2024-03-02T03:06:59;86580.56;;;19.15;67.43
81151;BME280;70629;-26.026;27.976;2024-03-02T03:07:41;86576.47;;;19.14;67.77
81151;BME280;70629;-26.026;27.976;2024-03-02T03:08:21;86576.47;;;19.14;68.17
81151;BME280;70629;-26.026;27.976;2024-03-02T03:09:02;86572.28;;;19.09;68.45
81151;BME280;70629;-26.026;27.976;2024-03-02T03:09:42;86576.13;;;18.98;68.45
81151;BME280;70629;-26.026;27.976;2024-03-02T03:10:22;86569.94;;;18.96;69.17
81151;BME280;70629;-26.026;27.976;2024-03-02T03:11:05;86579.06;;;19.08;68.56
81151;BME280;70629;-26.026;27.976;2024-03-02T03:11:45;86586.44;;;19.02;68.16
81151;BME280;70629;-26.026;27.976;2024-03-02T03:12:25;86580.28;;;19.01;68.66
81151;BME280;70629;-26.026;27.976;2024-03-02T03:13:05;86574.91;;;19.05;68.26
81151;BME280;70629;-26.026;27.976;2024-03-02T03:13:47;86582.53;;;19.11;68.02
81151;BME280;70629;-26.026;27.976;2024-03-02T03:14:27;86576.47;;;19.14;67.82
81151;BME280;70629;-26.026;27.976;2024-03-02T03:15:08;86587.53;;;19.22;67.50
81151;BME280;70629;-26.026;27.976;2024-03-02T03:15:48;86576.13;;;19.32;67.25
81151;BME280;70629;-26.026;27.976;2024-03-02T03:16:28;86584.84;;;19.24;67.59
81151;BME280;70629;-26.026;27.976;2024-03-02T03:17:08;86582.16;;;19.26;67.48
81151;BME280;70629;-26.026;27.976;2024-03-02T03:17:48;86573.88;;;19.20;67.73
81151;BME280;70629;-26.026;27.976;2024-03-02T03:18:27;86576.53;;;19.18;67.79
81151;BME280;70629;-26.026;27.976;2024-03-02T03:19:08;86572.22;;;19.07;68.16
81151;BME280;70629;-26.026;27.976;2024-03-02T03:19:47;86581.91;;;19.14;68.35
81151;BME280;70629;-26.026;27.976;2024-03-02T03:20:27;86573.81;;;19.18;68.25
81151;BME280;70629;-26.026;27.976;2024-03-02T03:21:07;86573.88;;;19.20;68.00
81151;BME280;70629;-26.026;27.976;2024-03-02T03:21:47;86574.63;;;19.25;67.96
81151;BME280;70629;-26.026;27.976;2024-03-02T03:22:27;86580.69;;;19.21;68.02
81151;BME280;70629;-26.026;27.976;2024-03-02T03:23:07;86579.31;;;19.20;68.05
81151;BME280;70629;-26.026;27.976;2024-03-02T03:23:47;86580.59;;;19.17;68.11
81151;BME280;70629;-26.026;27.976;2024-03-02T03:24:28;86579.28;;;19.18;67.91
81151;BME280;70629;-26.026;27.976;2024-03-02T03:25:08;86583.16;;;19.09;68.56
81151;BME280;70629;-26.026;27.976;2024-03-02T03:25:47;86588.63;;;19.09;68.55
81151;BME280;70629;-26.026;27.976;2024-03-02T03:26:27;86583.25;;;19.13;69.03
81151;BME280;70629;-26.026;27.976;2024-03-02T03:27:08;86583.81;;;19.08;69.08
81151;BME280;70629;-26.026;27.976;2024-03-02T03:27:48;86583.50;;;18.92;69.95
81151;BME280;70629;-26.026;27.976;2024-03-02T03:28:28;86587.91;;;19.07;69.07
81151;BME280;70629;-26.026;27.976;2024-03-02T03:29:08;86586.84;;;18.90;69.30
81151;BME280;70629;-26.026;27.976;2024-03-02T03:29:48;86589.53;;;18.88;68.63
81151;BME280;70629;-26.026;27.976;2024-03-02T03:30:28;86585.53;;;18.91;69.03
81151;BME280;70629;-26.026;27.976;2024-03-02T03:31:08;86584.88;;;18.93;69.02
81151;BME280;70629;-26.026;27.976;2024-03-02T03:31:48;86591.66;;;18.92;69.15
81151;BME280;70629;-26.026;27.976;2024-03-02T03:32:28;86584.53;;;18.76;70.06